Time;durP1;ratioP1;P1;durP2;ratioP2;P2;SDS_P1;SDS_P2;PMS_P1;PMS_P2;Temp;Humidity;BMP_temperature;BMP_pressure;BME280_temperature;BME280_humidity;BME280_pressure;Samples;Min_cycle;Max_cycle;Signal;HPM_P1;HPM_P2
2022/08/16 00:02:02;;;;;;;18.27;16.48;;;19.00;99.90;;;;;;4958193;28;20265;-77
2022/08/16 00:04:28;;;;;;;20.52;18.65;;;18.90;99.90;;;;;;4956115;28;20209;-77
2022/08/16 00:06:55;;;;;;;20.75;18.85;;;18.80;99.90;;;;;;4961950;28;20648;-80
2022/08/16 00:09:21;;;;;;;20.63;18.75;;;18.80;99.90;;;;;;4959863;28;20367;-78
2022/08/16 00:11:48;;;;;;;20.33;18.35;;;18.70;99.90;;;;;;4960314;28;20688;-77
2022/08/16 00:14:19;;;;;;;21.42;19.33;;;18.70;99.90;;;;;;4958275;28;20253;-79
2022/08/16 00:16:45;;;;;;;20.08;18.15;;;18.70;99.90;;;;;;4966022;28;20532;-78
2022/08/16 00:19:13;;;;;;;19.42;17.58;;;18.70;99.90;;;;;;4960705;28;20201;-78
2022/08/16 00:21:38;;;;;;;19.35;17.45;;;18.80;99.90;;;;;;4960162;28;20205;-78
2022/08/16 00:24:04;;;;;;;20.27;18.27;;;18.70;99.90;;;;;;4960395;28;20283;-77
2022/08/16 00:26:30;;;;;;;19.30;17.48;;;18.60;99.90;;;;;;4966959;28;20205;-79
2022/08/16 00:28:56;;;;;;;19.83;17.92;;;18.50;99.90;;;;;;4966413;28;20188;-79
2022/08/16 00:31:21;;;;;;;19.10;17.13;;;18.40;99.90;;;;;;4958728;28;20194;-78
2022/08/16 00:33:47;;;;;;;19.33;17.52;;;18.40;99.90;;;;;;4958981;28;20210;-77
2022/08/16 00:36:13;;;;;;;18.75;16.98;;;18.40;99.90;;;;;;4959475;28;20186;-77
2022/08/16 00:38:38;;;;;;;20.95;19.05;;;18.30;99.90;;;;;;4959347;28;20213;-76
2022/08/16 00:41:04;;;;;;;18.15;16.55;;;18.50;99.90;;;;;;4960820;28;20181;-76
2022/08/16 00:43:34;;;;;;;17.92;16.33;;;18.30;99.90;;;;;;4959257;28;20201;-79
2022/08/16 00:46:18;;;;;;;20.73;18.75;;;18.20;99.90;;;;;;4960224;28;20182;-78
2022/08/16 00:48:44;;;;;;;21.90;19.88;;;18.30;99.90;;;;;;4960849;28;20181;-77
2022/08/16 00:51:13;;;;;;;20.92;19.10;;;18.30;99.90;;;;;;4966944;28;20201;-77
2022/08/16 00:53:39;;;;;;;20.02;18.08;;;18.20;99.90;;;;;;4958929;28;20213;-77
2022/08/16 00:56:08;;;;;;;20.50;18.48;;;18.20;99.90;;;;;;4966704;28;20561;-78
2022/08/16 00:58:39;;;;;;;19.08;17.27;;;18.20;99.90;;;;;;4966696;28;20184;-76
2022/08/16 01:01:07;;;;;;;20.48;18.67;;;18.10;99.90;;;;;;4960982;28;20181;-76
2022/08/16 01:03:34;;;;;;;21.08;19.02;;;18.10;99.90;;;;;;4960130;28;20205;-79
2022/08/16 01:06:01;;;;;;;20.75;18.77;;;18.00;99.90;;;;;;4957476;28;20240;-80
2022/08/16 01:08:26;;;;;;;20.65;18.67;;;17.90;99.90;;;;;;4960528;28;20196;-78
2022/08/16 01:10:54;;;;;;;21.27;19.23;;;17.90;99.90;;;;;;4959792;28;20185;-77
2022/08/16 01:13:23;;;;;;;20.98;18.92;;;17.90;99.90;;;;;;4959568;28;20213;-78
2022/08/16 01:15:56;;;;;;;20.38;18.48;;;17.90;99.90;;;;;;4960034;28;20184;-76
2022/08/16 01:18:27;;;;;;;19.15;17.20;;;17.80;99.90;;;;;;4960204;28;20184;-80
2022/08/16 01:21:15;;;;;;;19.98;18.13;;;17.90;99.90;;;;;;4958385;28;20174;-77
2022/08/16 01:24:17;;;;;;;19.50;17.70;;;17.90;99.90;;;;;;4959421;28;20244;-77
2022/08/16 01:26:44;;;;;;;20.08;18.20;;;17.90;99.90;;;;;;4959271;28;20189;-77
2022/08/16 01:29:22;;;;;;;20.52;18.50;;;17.90;99.90;;;;;;4965330;28;20192;-77
2022/08/16 01:31:49;;;;;;;18.38;16.73;;;17.80;99.90;;;;;;4962505;28;20191;-79
2022/08/16 01:34:16;;;;;;;19.30;17.40;;;17.80;99.90;;;;;;4962829;28;20213;-79
2022/08/16 01:36:42;;;;;;;18.52;16.83;;;17.80;99.90;;;;;;4963801;28;20185;-77
2022/08/16 01:39:11;;;;;;;18.00;16.30;;;17.70;99.90;;;;;;4963928;28;20176;-78
2022/08/16 01:41:37;;;;;;;17.95;16.35;;;17.70;99.90;;;;;;4968750;28;20666;-78
2022/08/16 01:44:03;;;;;;;18.80;16.90;;;17.70;99.90;;;;;;4963287;28;20212;-77
2022/08/16 01:46:33;;;;;;;16.80;15.35;;;17.60;99.90;;;;;;4963036;28;20185;-77
2022/08/16 01:49:06;;;;;;;17.40;15.82;;;17.60;99.90;;;;;;4962252;28;20256;-78
2022/08/16 01:51:32;;;;;;;17.73;16.02;;;17.60;99.90;;;;;;4967885;28;20229;-77
2022/08/16 01:53:58;;;;;;;17.48;15.77;;;17.50;99.90;;;;;;4962808;28;20215;-79
2022/08/16 01:56:25;;;;;;;16.13;14.57;;;17.50;99.90;;;;;;4962706;28;20182;-77
2022/08/16 01:58:53;;;;;;;18.33;15.45;;;17.50;99.90;;;;;;4962507;28;20260;-78
2022/08/16 02:01:19;;;;;;;17.02;15.50;;;17.50;99.90;;;;;;4963982;28;20678;-79
2022/08/16 02:03:44;;;;;;;17.48;15.85;;;17.40;99.90;;;;;;4963158;28;20215;-77
2022/08/16 02:06:10;;;;;;;15.70;14.23;;;17.30;99.90;;;;;;4962333;28;20716;-79
2022/08/16 02:08:35;;;;;;;15.40;14.07;;;17.30;99.90;;;;;;4963138;28;20185;-79
2022/08/16 02:11:05;;;;;;;15.60;14.10;;;17.30;99.90;;;;;;4962322;28;20268;-77
2022/08/16 02:13:30;;;;;;;16.17;14.68;;;17.20;99.90;;;;;;4968418;28;20722;-78
2022/08/16 02:15:56;;;;;;;16.23;14.75;;;17.20;99.90;;;;;;4961610;28;20186;-77
2022/08/16 02:18:22;;;;;;;17.20;15.52;;;17.20;99.90;;;;;;4961299;28;20204;-79
2022/08/16 02:20:50;;;;;;;16.42;14.82;;;17.30;99.90;;;;;;4961127;28;20185;-78
2022/08/16 02:23:17;;;;;;;16.92;15.10;;;17.20;99.90;;;;;;4961855;28;20209;-76
2022/08/16 02:25:43;;;;;;;15.65;14.13;;;17.20;99.90;;;;;;4968791;28;20204;-79
2022/08/16 02:28:09;;;;;;;15.98;14.45;;;17.20;99.90;;;;;;4961952;28;20189;-77
2022/08/16 02:30:34;;;;;;;15.35;13.85;;;17.20;99.90;;;;;;4960115;28;20743;-79
2022/08/16 02:33:01;;;;;;;15.45;13.88;;;17.30;99.90;;;;;;4962157;28;20284;-78
2022/08/16 02:35:27;;;;;;;15.98;13.18;;;17.30;99.90;;;;;;4960956;28;20192;-76
2022/08/16 02:37:53;;;;;;;16.10;14.35;;;17.50;99.90;;;;;;4968675;28;20233;-78
2022/08/16 02:40:21;;;;;;;14.40;13.00;;;17.40;99.90;;;;;;4961696;28;20172;-79
2022/08/16 02:42:48;;;;;;;13.68;12.38;;;17.50;99.90;;;;;;4962361;28;20290;-76
2022/08/16 02:45:15;;;;;;;12.65;11.60;;;17.60;99.90;;;;;;4961814;28;20721;-78
2022/08/16 02:47:40;;;;;;;13.50;12.27;;;17.60;99.90;;;;;;4960082;28;20193;-78
2022/08/16 02:50:07;;;;;;;13.95;12.63;;;17.50;99.90;;;;;;4962169;28;20177;-77
2022/08/16 02:52:33;;;;;;;13.63;12.32;;;17.60;99.90;;;;;;4961100;28;20267;-77
2022/08/16 02:54:59;;;;;;;13.98;11.98;;;17.60;99.90;;;;;;4960990;28;20191;-78
2022/08/16 02:57:25;;;;;;;13.02;11.73;;;17.60;99.90;;;;;;4967868;28;20177;-77
2022/08/16 02:59:51;;;;;;;12.95;11.75;;;17.60;99.90;;;;;;4961017;28;20562;-76
2022/08/16 03:02:17;;;;;;;12.73;11.63;;;17.50;99.90;;;;;;4959207;28;20189;-78
2022/08/16 03:04:42;;;;;;;13.55;12.15;;;17.50;99.90;;;;;;4959107;28;20185;-79
2022/08/16 03:07:09;;;;;;;12.80;11.50;;;17.40;99.90;;;;;;4961227;28;20193;-77
2022/08/16 03:09:34;;;;;;;14.32;12.93;;;17.30;99.90;;;;;;4959476;28;20296;-77
2022/08/16 03:12:01;;;;;;;13.38;12.18;;;17.30;99.90;;;;;;4961728;28;20324;-77
2022/08/16 03:14:27;;;;;;;14.45;13.05;;;17.30;99.90;;;;;;4960284;28;20205;-79
2022/08/16 03:16:53;;;;;;;13.73;12.43;;;17.30;99.90;;;;;;4961534;28;20185;-77
2022/08/16 03:19:19;;;;;;;13.10;11.90;;;17.30;99.90;;;;;;4962917;28;20212;-78
2022/08/16 03:21:45;;;;;;;12.48;11.27;;;17.30;99.90;;;;;;4958713;28;20237;-77
2022/08/16 03:24:11;;;;;;;12.00;11.00;;;17.20;99.90;;;;;;4960362;28;20201;-79
2022/08/16 03:26:37;;;;;;;12.93;11.15;;;17.20;99.90;;;;;;4961358;28;20188;-77
2022/08/16 03:29:03;;;;;;;12.70;11.63;;;17.20;99.90;;;;;;4959079;28;20734;-79
2022/08/16 03:31:28;;;;;;;13.38;12.05;;;17.20;99.90;;;;;;4961577;28;20223;-79
2022/08/16 03:33:54;;;;;;;19.15;11.52;;;17.20;99.90;;;;;;4959242;28;20216;-76
2022/08/16 03:36:19;;;;;;;14.45;12.00;;;17.20;99.90;;;;;;4961982;28;20251;-79
2022/08/16 03:38:45;;;;;;;13.20;11.77;;;17.20;99.90;;;;;;4960449;28;20201;-79
2022/08/16 03:41:11;;;;;;;12.75;11.40;;;17.20;99.90;;;;;;4961750;28;20209;-79
2022/08/16 03:43:36;;;;;;;12.82;11.73;;;17.20;99.90;;;;;;4966684;28;20210;-80
2022/08/16 03:46:02;;;;;;;13.73;12.32;;;17.20;99.90;;;;;;4962358;28;20192;-77
2022/08/16 03:48:31;;;;;;;13.25;11.95;;;17.10;99.90;;;;;;4967974;28;20212;-80
2022/08/16 03:50:59;;;;;;;13.38;11.85;;;17.10;99.90;;;;;;4967032;28;20186;-79
2022/08/16 03:53:25;;;;;;;12.73;11.52;;;17.10;99.90;;;;;;4961474;28;20213;-79
2022/08/16 03:55:51;;;;;;;13.95;12.73;;;17.10;99.90;;;;;;4960890;28;20267;-78
2022/08/16 03:58:17;;;;;;;13.32;12.10;;;17.10;99.90;;;;;;4960150;28;20188;-77
2022/08/16 04:00:42;;;;;;;13.55;11.98;;;17.00;99.90;;;;;;4961830;28;20186;-80
2022/08/16 04:03:08;;;;;;;13.65;12.35;;;17.00;99.90;;;;;;4959594;28;20304;-79
2022/08/16 04:05:36;;;;;;;14.27;12.90;;;17.00;99.90;;;;;;4961080;28;20224;-76
2022/08/16 04:08:05;;;;;;;12.90;11.70;;;17.00;99.90;;;;;;4967105;28;20185;-79
2022/08/16 04:10:31;;;;;;;13.20;11.93;;;17.10;99.90;;;;;;4961620;28;20659;-78
2022/08/16 04:12:57;;;;;;;11.98;10.82;;;17.10;99.90;;;;;;4960527;28;20240;-78
2022/08/16 04:15:24;;;;;;;12.55;11.45;;;16.90;99.90;;;;;;4967236;28;20284;-79
2022/08/16 04:17:51;;;;;;;12.88;11.15;;;17.10;99.90;;;;;;4959770;28;20184;-77
2022/08/16 04:20:17;;;;;;;10.68;9.52;;;17.10;99.90;;;;;;4960011;28;20182;-79
2022/08/16 04:22:43;;;;;;;12.70;11.35;;;17.10;99.90;;;;;;4959394;28;20209;-78
2022/08/16 04:25:10;;;;;;;11.55;10.35;;;17.20;99.90;;;;;;4960408;28;20457;-78
2022/08/16 04:27:37;;;;;;;12.73;11.43;;;17.20;99.90;;;;;;4959497;28;20280;-79
2022/08/16 04:30:10;;;;;;;12.40;10.25;;;17.20;99.90;;;;;;4959099;28;20181;-76
2022/08/16 04:32:38;;;;;;;11.95;10.70;;;17.20;99.90;;;;;;4959774;28;20582;-76
2022/08/16 04:35:06;;;;;;;13.52;11.13;;;17.20;99.90;;;;;;4959587;28;20264;-79
2022/08/16 04:37:31;;;;;;;11.60;10.43;;;17.10;99.90;;;;;;4959748;28;20182;-78
2022/08/16 04:39:57;;;;;;;11.80;10.80;;;17.20;99.90;;;;;;4959518;28;20187;-77
2022/08/16 04:42:23;;;;;;;11.40;9.80;;;17.20;99.90;;;;;;4959103;28;20185;-78
2022/08/16 04:44:49;;;;;;;10.35;9.35;;;17.20;99.90;;;;;;4959906;28;20668;-76
2022/08/16 04:47:14;;;;;;;11.77;10.68;;;17.30;99.90;;;;;;4959471;28;20189;-80
2022/08/16 04:49:40;;;;;;;11.90;10.20;;;17.40;99.90;;;;;;4959853;28;21150;-77
2022/08/16 04:52:06;;;;;;;11.52;10.30;;;17.40;99.90;;;;;;4965742;28;20207;-79
2022/08/16 04:54:31;;;;;;;11.73;10.07;;;17.40;99.90;;;;;;4959083;28;20229;-76
2022/08/16 04:56:57;;;;;;;12.32;10.02;;;17.40;99.90;;;;;;4960450;28;20185;-79
2022/08/16 04:59:22;;;;;;;10.40;9.50;;;17.40;99.90;;;;;;4961029;28;20188;-79
2022/08/16 05:01:48;;;;;;;11.18;10.05;;;17.50;99.90;;;;;;4967661;28;20238;-79
2022/08/16 05:04:14;;;;;;;10.43;9.43;;;17.60;99.90;;;;;;4963122;28;20228;-76
2022/08/16 05:06:40;;;;;;;12.73;9.68;;;17.70;99.90;;;;;;4962559;28;20186;-80
2022/08/16 05:09:06;;;;;;;11.27;9.02;;;17.80;99.90;;;;;;4963120;28;20184;-78
2022/08/16 05:11:31;;;;;;;11.27;9.15;;;18.00;99.90;;;;;;4962506;28;20186;-77
2022/08/16 05:14:00;;;;;;;9.73;8.73;;;18.60;99.90;;;;;;4970005;28;20237;-77
2022/08/16 05:16:28;;;;;;;7.72;6.90;;;19.10;99.90;;;;;;4962358;28;20268;-78
2022/08/16 05:18:56;;;;;;;8.77;6.78;;;19.80;99.90;;;;;;4962105;28;20243;-78
2022/08/16 05:21:21;;;;;;;7.70;6.30;;;20.40;99.90;;;;;;4962133;28;20182;-77
2022/08/16 05:23:49;;;;;;;7.05;5.63;;;21.40;61.40;;;;;;4960217;28;20212;-77
2022/08/16 05:26:15;;;;;;;9.68;6.20;;;21.70;20.10;;;;;;4961855;28;20308;-77
2022/08/16 05:28:40;;;;;;;6.10;5.53;;;22.10;8.40;;;;;;4961375;28;20190;-77
2022/08/16 05:31:06;;;;;;;6.68;5.78;;;22.40;1.00;;;;;;4962757;28;20652;-77
2022/08/16 05:33:31;;;;;;;6.18;5.57;;;22.70;1.00;;;;;;4960922;28;20616;-77
2022/08/16 05:35:57;;;;;;;6.85;6.00;;;22.90;1.00;;;;;;4961709;28;20181;-77
2022/08/16 05:38:29;;;;;;;5.70;5.10;;;23.40;1.00;;;;;;4960615;28;20219;-78
2022/08/16 05:40:59;;;;;;;7.65;5.10;;;23.40;1.00;;;;;;4960540;28;20816;-75
2022/08/16 05:43:25;;;;;;;5.50;5.00;;;23.70;99.90;;;;;;4967563;28;20212;-77
2022/08/16 05:45:50;;;;;;;5.38;4.88;;;23.90;99.90;;;;;;4959896;28;20186;-76
2022/08/16 05:48:16;;;;;;;5.78;5.28;;;24.10;99.90;;;;;;4961044;28;20181;-76
2022/08/16 05:50:42;;;;;;;6.25;5.63;;;24.20;85.80;;;;;;4961103;28;20201;-77
2022/08/16 05:53:08;;;;;;;6.80;5.07;;;24.20;1.00;;;;;;4967511;28;20219;-79
2022/08/16 05:55:34;;;;;;;6.00;5.50;;;24.30;1.00;;;;;;4959693;28;20177;-77
2022/08/16 05:57:59;;;;;;;5.38;4.80;;;24.50;99.90;;;;;;4958751;28;20228;-76
2022/08/16 06:00:25;;;;;;;5.63;4.78;;;24.80;7.60;;;;;;4966071;28;20181;-76
2022/08/16 06:02:51;;;;;;;5.47;5.00;;;25.30;99.90;;;;;;4961427;28;20292;-76
2022/08/16 06:05:18;;;;;;;6.57;4.75;;;25.00;99.90;;;;;;4965716;28;20204;-76
2022/08/16 06:07:43;;;;;;;5.05;4.60;;;25.60;99.90;;;;;;4966043;28;20214;-76
2022/08/16 06:10:11;;;;;;;4.82;4.43;;;25.90;99.90;;;;;;4963171;28;20240;-75
2022/08/16 06:12:37;;;;;;;4.63;4.22;;;26.30;99.90;;;;;;4955305;28;20768;-76
2022/08/16 06:15:08;;;;;;;4.57;4.18;;;26.60;1.00;;;;;;4958058;28;20181;-77
2022/08/16 06:17:34;;;;;;;5.55;5.05;;;27.10;82.70;;;;;;4957166;28;20320;-78
2022/08/16 06:20:00;;;;;;;6.95;6.35;;;27.10;1.00;;;;;;4957766;28;21128;-75
2022/08/16 06:22:25;;;;;;;5.10;4.65;;;26.50;1.00;;;;;;4956967;28;20182;-76
2022/08/16 06:24:51;;;;;;;5.15;4.72;;;26.70;1.00;;;;;;4965943;28;20287;-78
2022/08/16 06:27:17;;;;;;;6.95;4.70;;;26.60;99.90;;;;;;4953587;28;20271;-76
2022/08/16 06:29:43;;;;;;;6.72;4.80;;;26.40;1.00;;;;;;4961496;28;20651;-77
2022/08/16 06:32:10;;;;;;;4.88;4.38;;;26.40;1.00;;;;;;4963220;28;20541;-77
2022/08/16 06:34:36;;;;;;;4.32;3.92;;;25.90;1.00;;;;;;4962318;28;20599;-76
2022/08/16 06:37:02;;;;;;;4.60;4.03;;;26.20;1.00;;;;;;4948433;28;20181;-78
2022/08/16 06:39:28;;;;;;;4.20;3.80;;;26.70;1.00;;;;;;4952591;28;20228;-75
2022/08/16 06:41:54;;;;;;;3.95;3.65;;;27.30;99.90;;;;;;4958638;28;20742;-76
2022/08/16 06:44:20;;;;;;;4.10;3.83;;;27.90;1.00;;;;;;4962771;28;20201;-77
2022/08/16 06:46:45;;;;;;;5.13;3.88;;;28.20;1.00;;;;;;4955270;28;20189;-75
2022/08/16 06:49:11;;;;;;;4.63;4.18;;;28.30;99.90;;;;;;4951646;28;20216;-75
2022/08/16 06:51:38;;;;;;;4.90;4.50;;;27.70;99.90;;;;;;4960697;28;20201;-79
2022/08/16 06:54:04;;;;;;;5.90;4.30;;;27.50;99.90;;;;;;4964086;28;20604;-76
2022/08/16 06:56:30;;;;;;;5.00;4.07;;;27.50;99.90;;;;;;4963516;28;20188;-77
2022/08/16 06:58:55;;;;;;;4.00;3.58;;;27.80;99.90;;;;;;4963816;28;20469;-76
2022/08/16 07:01:21;;;;;;;4.25;3.83;;;28.30;99.90;;;;;;4965752;28;20568;-76
2022/08/16 07:03:48;;;;;;;3.75;3.17;;;28.40;99.90;;;;;;4963782;28;20316;-75
2022/08/16 07:06:14;;;;;;;4.43;4.00;;;28.70;99.90;;;;;;4958389;28;20184;-77
2022/08/16 07:08:41;;;;;;;4.68;4.28;;;28.90;29.30;;;;;;4964986;28;20272;-77
2022/08/16 07:11:07;;;;;;;4.20;3.75;;;28.70;1.00;;;;;;4954614;28;20180;-75
2022/08/16 07:13:34;;;;;;;5.38;3.92;;;28.50;14.40;;;;;;4957849;28;20235;-76
2022/08/16 07:15:59;;;;;;;4.30;3.90;;;28.50;22.20;;;;;;4960335;28;20189;-76
2022/08/16 07:18:25;;;;;;;4.88;3.97;;;28.00;33.90;;;;;;4956520;28;20563;-77
2022/08/16 07:20:52;;;;;;;3.67;3.40;;;27.70;99.90;;;;;;4958616;28;20180;-75
2022/08/16 07:23:19;;;;;;;4.63;4.10;;;27.50;99.90;;;;;;4954327;28;20275;-77
2022/08/16 07:25:45;;;;;;;5.78;3.80;;;26.90;99.90;;;;;;4965212;28;20220;-76
2022/08/16 07:28:16;;;;;;;3.85;3.55;;;26.60;1.00;;;;;;4952958;28;20569;-76
2022/08/16 07:30:42;;;;;;;5.15;4.38;;;26.40;9.60;;;;;;4954744;28;20181;-76
2022/08/16 07:33:08;;;;;;;4.85;4.40;;;26.20;99.90;;;;;;4964863;28;20247;-77
2022/08/16 07:35:34;;;;;;;4.80;4.40;;;26.00;1.00;;;;;;4966523;28;20187;-77
2022/08/16 07:38:01;;;;;;;4.82;4.32;;;26.00;99.90;;;;;;4956004;28;20176;-76
2022/08/16 07:40:27;;;;;;;6.30;4.80;;;25.70;1.00;;;;;;4957117;28;20256;-75
2022/08/16 07:42:52;;;;;;;4.40;4.00;;;25.40;1.00;;;;;;4956869;28;20211;-76
2022/08/16 07:45:18;;;;;;;4.80;4.30;;;25.30;1.00;;;;;;4952394;28;20419;-77
2022/08/16 07:47:44;;;;;;;5.13;4.47;;;25.30;99.90;;;;;;4960169;28;20193;-76
2022/08/16 07:50:13;;;;;;;6.53;4.25;;;25.30;1.00;;;;;;4953548;28;20183;-77
2022/08/16 07:52:39;;;;;;;4.72;4.20;;;25.40;99.90;;;;;;4959258;28;20535;-77
2022/08/16 07:55:07;;;;;;;4.30;4.00;;;25.30;50.10;;;;;;4958334;28;20186;-76
2022/08/16 07:57:32;;;;;;;4.05;3.75;;;25.30;1.00;;;;;;4949723;28;20260;-77
2022/08/16 07:59:59;;;;;;;4.25;3.95;;;25.40;1.00;;;;;;4955855;28;20272;-77
2022/08/16 08:02:25;;;;;;;4.05;3.65;;;25.50;99.90;;;;;;4954446;28;20635;-76
2022/08/16 08:04:51;;;;;;;5.15;4.00;;;25.60;1.00;;;;;;4956097;28;20363;-78
2022/08/16 08:07:17;;;;;;;3.67;3.38;;;25.50;1.00;;;;;;4962115;28;20178;-77
2022/08/16 08:09:42;;;;;;;6.43;3.53;;;25.50;1.00;;;;;;4964576;28;20213;-77
2022/08/16 08:12:08;;;;;;;5.57;3.65;;;25.50;1.00;;;;;;4965045;28;20207;-76
2022/08/16 08:14:34;;;;;;;4.35;3.95;;;25.40;99.90;;;;;;4965214;28;20219;-78
2022/08/16 08:17:00;;;;;;;3.92;3.53;;;25.40;99.90;;;;;;4950377;28;20618;-77
2022/08/16 08:19:26;;;;;;;3.70;3.40;;;25.40;99.90;;;;;;4954792;28;20189;-76
2022/08/16 08:21:53;;;;;;;3.40;3.13;;;25.40;1.00;;;;;;4950494;28;20186;-77
2022/08/16 08:24:21;;;;;;;3.88;3.58;;;25.40;88.70;;;;;;4957908;28;20560;-77
2022/08/16 08:26:46;;;;;;;3.65;3.30;;;25.60;1.00;;;;;;4955389;28;21049;-77
2022/08/16 08:29:12;;;;;;;3.35;3.05;;;25.50;1.00;;;;;;4954045;28;20299;-77
2022/08/16 08:31:40;;;;;;;4.18;3.67;;;25.70;1.00;;;;;;4959244;28;20191;-76
2022/08/16 08:34:06;;;;;;;3.65;3.35;;;25.80;1.00;;;;;;4958449;28;20271;-76
2022/08/16 08:36:34;;;;;;;5.07;3.60;;;25.90;1.00;;;;;;4967975;28;20176;-76
2022/08/16 08:39:01;;;;;;;5.25;3.25;;;25.90;99.90;;;;;;4969796;28;20216;-77
2022/08/16 08:41:28;;;;;;;4.85;3.90;;;25.80;99.90;;;;;;4961731;28;20626;-78
2022/08/16 08:43:55;;;;;;;5.13;3.60;;;25.70;99.90;;;;;;4963938;28;20232;-77
2022/08/16 08:46:22;;;;;;;8.98;4.53;;;25.80;1.00;;;;;;4963613;28;20178;-76
2022/08/16 08:48:49;;;;;;;4.75;3.83;;;25.80;99.90;;;;;;4962680;28;20177;-78
2022/08/16 08:51:17;;;;;;;3.83;3.40;;;25.80;99.90;;;;;;4962306;28;20197;-77
2022/08/16 08:53:43;;;;;;;6.45;3.35;;;25.90;99.90;;;;;;4961616;28;20209;-76
2022/08/16 08:56:13;;;;;;;4.10;3.47;;;25.90;99.90;;;;;;4962790;28;20235;-77
2022/08/16 08:58:39;;;;;;;5.13;3.53;;;25.90;99.90;;;;;;4963638;28;20232;-77
2022/08/16 09:01:06;;;;;;;5.80;3.67;;;25.90;99.90;;;;;;4961583;28;20177;-77
2022/08/16 09:03:33;;;;;;;7.93;3.80;;;26.00;99.90;;;;;;4968978;28;20691;-76
2022/08/16 09:06:00;;;;;;;4.45;3.85;;;26.00;13.40;;;;;;4960414;28;20201;-77
2022/08/16 09:08:25;;;;;;;4.45;3.40;;;26.20;99.90;;;;;;4959098;28;20192;-77
2022/08/16 09:10:54;;;;;;;5.75;3.60;;;26.30;5.60;;;;;;4959738;28;20186;-79
2022/08/16 09:13:21;;;;;;;7.20;3.45;;;26.30;1.00;;;;;;4969196;28;20310;-78
2022/08/16 09:15:48;;;;;;;6.85;3.78;;;26.40;1.00;;;;;;4963672;28;20263;-77
2022/08/16 09:18:16;;;;;;;5.20;3.58;;;26.50;1.00;;;;;;4962745;28;20177;-77
2022/08/16 09:20:42;;;;;;;7.00;3.38;;;26.40;1.00;;;;;;4963068;28;20606;-78
2022/08/16 09:23:09;;;;;;;3.47;3.17;;;26.30;1.00;;;;;;4961802;28;20206;-79
2022/08/16 09:25:34;;;;;;;3.85;3.53;;;26.30;1.00;;;;;;4962648;28;20201;-79
2022/08/16 09:28:00;;;;;;;3.33;3.03;;;26.10;1.00;;;;;;4968618;28;20263;-77
2022/08/16 09:30:26;;;;;;;3.92;3.30;;;26.10;1.00;;;;;;4962173;28;20181;-77
2022/08/16 09:32:53;;;;;;;4.53;3.30;;;26.50;1.00;;;;;;4962245;28;20213;-77
2022/08/16 09:35:20;;;;;;;4.47;2.95;;;26.60;1.00;;;;;;4961954;28;20177;-78
2022/08/16 09:37:47;;;;;;;5.90;2.90;;;26.70;99.90;;;;;;4961655;28;20177;-78
2022/08/16 09:40:12;;;;;;;4.88;3.03;;;26.60;99.90;;;;;;4963010;28;20186;-77
2022/08/16 09:42:39;;;;;;;3.08;2.70;;;26.40;99.90;;;;;;4960180;28;20211;-76
2022/08/16 09:45:07;;;;;;;3.65;2.97;;;26.40;99.90;;;;;;4969114;28;20181;-77
2022/08/16 09:47:39;;;;;;;4.22;2.78;;;26.50;99.90;;;;;;4968583;28;20185;-77
2022/08/16 09:50:09;;;;;;;2.90;2.70;;;26.60;99.90;;;;;;4962259;28;20220;-77
2022/08/16 09:52:36;;;;;;;2.95;2.75;;;26.90;99.90;;;;;;4967001;28;20336;-77
2022/08/16 09:55:08;;;;;;;3.75;2.67;;;26.80;99.90;;;;;;4968510;28;20186;-79
2022/08/16 09:57:37;;;;;;;2.78;2.50;;;26.60;99.90;;;;;;4968127;28;20177;-78
2022/08/16 10:00:06;;;;;;;2.60;2.40;;;26.80;99.90;;;;;;4959849;28;20174;-79
2022/08/16 10:02:32;;;;;;;3.15;2.78;;;26.90;99.90;;;;;;4960899;28;20196;-77
2022/08/16 10:04:57;;;;;;;3.40;2.65;;;27.00;99.90;;;;;;4960990;28;20704;-78
2022/08/16 10:07:25;;;;;;;3.83;2.70;;;26.90;99.90;;;;;;4962917;28;20656;-78
2022/08/16 10:09:50;;;;;;;3.90;2.90;;;27.00;99.90;;;;;;4961377;28;20186;-77
2022/08/16 10:15:00;;;;;;;3.00;2.60;;;27.20;58.50;;;;;;4961693;28;20545;-77
2022/08/16 10:17:26;;;;;;;3.00;2.70;;;27.20;58.10;;;;;;4967620;28;20173;-76
2022/08/16 10:19:54;;;;;;;2.65;2.45;;;27.50;1.00;;;;;;4967667;28;20178;-76
2022/08/16 10:22:21;;;;;;;4.55;2.63;;;27.40;1.00;;;;;;4967674;28;20232;-76
2022/08/16 10:24:46;;;;;;;3.53;2.92;;;27.30;1.00;;;;;;4962402;28;20651;-77
2022/08/16 10:27:12;;;;;;;3.17;2.88;;;27.30;1.00;;;;;;4961432;28;20195;-76
2022/08/16 10:29:39;;;;;;;4.32;3.03;;;27.20;1.00;;;;;;4961286;28;20624;-78
2022/08/16 10:32:04;;;;;;;3.55;2.60;;;27.40;1.00;;;;;;4963592;28;20204;-78
2022/08/16 10:34:30;;;;;;;3.40;2.80;;;27.40;1.00;;;;;;4960444;28;21174;-77
2022/08/16 10:36:55;;;;;;;3.55;2.83;;;27.40;1.00;;;;;;4968086;28;20750;-77
2022/08/16 10:39:21;;;;;;;2.95;2.70;;;27.60;1.00;;;;;;4959671;28;20217;-78
2022/08/16 10:41:47;;;;;;;3.08;2.78;;;27.90;1.00;;;;;;4966890;28;20231;-77
2022/08/16 10:44:13;;;;;;;3.17;2.88;;;28.20;1.00;;;;;;4965810;28;21006;-77
2022/08/16 10:46:40;;;;;;;3.75;2.80;;;28.60;1.00;;;;;;4960963;28;20284;-77
2022/08/16 10:49:06;;;;;;;4.18;2.83;;;28.50;1.00;;;;;;4960701;28;20212;-78
2022/08/16 10:51:31;;;;;;;3.75;2.78;;;28.20;1.00;;;;;;4956253;28;20243;-75
2022/08/16 10:53:57;;;;;;;3.20;2.78;;;28.20;1.00;;;;;;4956945;28;20223;-78
2022/08/16 10:56:24;;;;;;;3.33;2.75;;;28.30;1.00;;;;;;4956280;28;20189;-77
2022/08/16 10:58:51;;;;;;;11.30;4.40;;;28.50;1.00;;;;;;4963092;28;20206;-77
2022/08/16 11:01:16;;;;;;;2.90;2.65;;;28.60;1.00;;;;;;4958357;28;20647;-77
2022/08/16 11:03:42;;;;;;;3.78;2.78;;;28.70;1.00;;;;;;4954046;28;20197;-77
2022/08/16 11:06:08;;;;;;;3.40;2.95;;;28.80;1.00;;;;;;4958757;28;20181;-77
2022/08/16 11:08:35;;;;;;;5.43;3.20;;;28.70;1.00;;;;;;4956936;28;20196;-75
2022/08/16 11:11:01;;;;;;;4.70;3.20;;;28.70;1.00;;;;;;4964447;28;20200;-77
2022/08/16 11:13:27;;;;;;;3.30;2.80;;;28.70;1.00;;;;;;4959469;28;20232;-77
2022/08/16 11:15:56;;;;;;;7.88;3.55;;;28.60;1.00;;;;;;4965760;28;20177;-77
2022/08/16 11:18:22;;;;;;;7.70;3.03;;;28.70;1.00;;;;;;4956763;28;20232;-77
2022/08/16 11:20:48;;;;;;;4.20;2.70;;;28.40;1.00;;;;;;4961474;28;20186;-77
2022/08/16 11:23:14;;;;;;;4.43;2.70;;;28.50;1.00;;;;;;4964689;28;20204;-77
2022/08/16 11:25:41;;;;;;;4.35;2.78;;;28.40;1.00;;;;;;4964130;28;20185;-78
2022/08/16 11:28:08;;;;;;;3.05;2.60;;;28.40;1.00;;;;;;4958528;28;20184;-78
2022/08/16 11:30:34;;;;;;;3.55;2.67;;;28.40;1.00;;;;;;4960365;28;20185;-77
2022/08/16 11:33:00;;;;;;;2.80;2.60;;;28.60;1.00;;;;;;4959214;28;20213;-75
2022/08/16 11:35:29;;;;;;;2.83;2.58;;;28.70;1.00;;;;;;4957931;28;20292;-75
2022/08/16 11:38:06;;;;;;;3.10;2.80;;;28.60;1.00;;;;;;4958036;28;20194;-77
2022/08/16 11:40:38;;;;;;;2.50;2.30;;;28.70;1.00;;;;;;4959069;28;20544;-76
2022/08/16 11:43:05;;;;;;;3.05;2.60;;;28.90;99.90;;;;;;4959648;28;20343;-76
2022/08/16 11:45:32;;;;;;;3.05;2.75;;;29.00;99.90;;;;;;4957988;28;20718;-78
2022/08/16 11:47:59;;;;;;;3.10;2.45;;;28.60;99.90;;;;;;4956274;28;20196;-78
2022/08/16 11:50:24;;;;;;;3.05;2.53;;;28.50;99.90;;;;;;4959080;28;20681;-76
2022/08/16 11:52:50;;;;;;;2.60;2.40;;;28.20;99.90;;;;;;4966731;28;20224;-78
2022/08/16 11:55:16;;;;;;;3.63;2.80;;;28.30;99.90;;;;;;4961358;28;20181;-79
2022/08/16 11:57:41;;;;;;;3.25;2.63;;;28.30;99.90;;;;;;4960512;28;20186;-79
2022/08/16 12:00:13;;;;;;;2.95;2.72;;;28.50;99.90;;;;;;4959530;28;20264;-79
2022/08/16 12:02:39;;;;;;;3.00;2.60;;;28.40;99.90;;;;;;4957911;28;20233;-79
2022/08/16 12:05:07;;;;;;;3.35;2.90;;;28.20;99.90;;;;;;4960047;28;20181;-78
2022/08/16 12:07:33;;;;;;;3.38;2.85;;;28.20;99.90;;;;;;4960102;28;20197;-79
2022/08/16 12:10:00;;;;;;;3.17;2.85;;;28.10;99.90;;;;;;4960583;28;20182;-79
2022/08/16 12:12:26;;;;;;;2.90;2.70;;;28.00;99.90;;;;;;4959420;28;20211;-79
2022/08/16 12:14:52;;;;;;;5.50;3.25;;;28.30;99.90;;;;;;4966799;28;20726;-78
2022/08/16 12:17:21;;;;;;;3.42;2.95;;;28.60;99.90;;;;;;4962168;28;20182;-79
2022/08/16 12:19:47;;;;;;;3.08;2.83;;;28.90;99.90;;;;;;4960723;28;20201;-79
2022/08/16 12:22:13;;;;;;;3.30;3.00;;;29.00;99.90;;;;;;4960708;28;20211;-78
2022/08/16 12:24:39;;;;;;;3.25;2.85;;;29.00;99.90;;;;;;4960739;28;20181;-79
2022/08/16 12:27:05;;;;;;;3.30;3.00;;;29.20;99.90;;;;;;4960648;28;20185;-79
2022/08/16 12:29:31;;;;;;;3.05;2.75;;;29.30;99.90;;;;;;4962357;28;20292;-79
2022/08/16 12:31:58;;;;;;;4.47;2.75;;;29.20;99.90;;;;;;4961222;28;20177;-79
2022/08/16 12:34:24;;;;;;;3.33;2.67;;;29.20;99.90;;;;;;4965795;28;20244;-78
2022/08/16 12:36:50;;;;;;;5.30;3.03;;;29.30;99.90;;;;;;4959171;28;21072;-77
2022/08/16 12:39:19;;;;;;;7.13;3.50;;;29.50;99.90;;;;;;4962245;28;20208;-79
2022/08/16 12:41:45;;;;;;;14.00;4.03;;;29.40;99.90;;;;;;4959563;28;20200;-78